logo
Search for airport 
image banner adimage banner adimage banner ad
image banner ad

SDW7 - Fazenda Joia

Located in Santa Rita Do Tocantins, Brazil

ICAO - SDW7, IATA -

Data provided by Airmate  

General information

Coordinates: S10°50'24" W49°28'6"
Elevation is 633 feet MSL.
Magnetic variation is -21.35° East
View others Airports in Tocatins

Operational data

Special qualification required
Current time UTC:
Current local time:
Weather at : - ( 0 km )
METAR: CYPH 130323Z AUTO 30010KT 6SM -RA BR OVC004 06/05 A3001 RMK SLP167
View NOTAMs / SUP AIP / TFR affecting this airport [VIEW]
Communications frequencies: [VIEW]

Runways:

Airport contact information

Address: Santa Rita Do Tocantins Brazil

Satellite view of SDW7